createdAt,value
2017-06-09T00:00:24.037Z,0
2017-06-09T00:00:56.294Z,0
2017-06-09T00:01:28.617Z,0
2017-06-09T00:02:00.884Z,0
2017-06-09T00:02:33.143Z,0
2017-06-09T00:03:05.400Z,0
2017-06-09T00:03:38.554Z,0
2017-06-09T00:04:10.806Z,0
2017-06-09T00:04:44.530Z,0
2017-06-09T00:05:16.778Z,0
2017-06-09T00:05:49.027Z,0
2017-06-09T00:06:21.274Z,0
2017-06-09T00:06:54.428Z,0
2017-06-09T00:07:26.661Z,0
2017-06-09T00:07:58.902Z,0
2017-06-09T00:08:31.205Z,0
2017-06-09T00:09:03.442Z,0
2017-06-09T00:09:36.614Z,0
2017-06-09T00:10:08.887Z,0
2017-06-09T00:10:41.143Z,0
2017-06-09T00:11:13.380Z,0
2017-06-09T00:11:45.634Z,0
2017-06-09T00:12:17.906Z,0
2017-06-09T00:12:50.173Z,0
2017-06-09T00:13:22.474Z,0
2017-06-09T00:13:54.764Z,0
2017-06-09T00:14:27.055Z,0
2017-06-09T00:14:59.332Z,0
2017-06-09T00:15:31.631Z,0
2017-06-09T00:16:03.967Z,0
2017-06-09T00:16:36.234Z,0
2017-06-09T00:17:08.518Z,0
2017-06-09T00:17:40.820Z,0
2017-06-09T00:18:13.110Z,0
2017-06-09T00:18:45.397Z,0
2017-06-09T00:19:17.691Z,0
2017-06-09T00:19:49.983Z,0
2017-06-09T00:20:22.273Z,0
2017-06-09T00:20:54.573Z,0
2017-06-09T00:21:26.841Z,0
2017-06-09T00:21:59.122Z,0
2017-06-09T00:22:31.452Z,0
2017-06-09T00:23:03.725Z,0
2017-06-09T00:23:36.021Z,0
2017-06-09T00:24:08.306Z,0
2017-06-09T00:24:40.632Z,0
2017-06-09T00:25:12.915Z,0
2017-06-09T00:25:45.200Z,0
2017-06-09T00:26:17.478Z,0
2017-06-09T00:26:49.786Z,0
2017-06-09T00:27:22.071Z,0
2017-06-09T00:27:54.374Z,0
2017-06-09T00:28:26.670Z,0
2017-06-09T00:28:58.991Z,0
2017-06-09T00:29:31.270Z,0
2017-06-09T00:30:03.551Z,0
2017-06-09T00:30:35.814Z,0
2017-06-09T00:31:08.117Z,0
2017-06-09T00:31:40.435Z,0
2017-06-09T00:32:12.740Z,0
2017-06-09T00:32:45.024Z,0
2017-06-09T00:33:17.325Z,0
2017-06-09T00:33:49.653Z,0
2017-06-09T00:34:21.947Z,0
2017-06-09T00:34:54.226Z,0
2017-06-09T00:35:26.505Z,0
2017-06-09T00:35:58.805Z,0
2017-06-09T00:36:31.113Z,0
2017-06-09T00:37:03.400Z,0
2017-06-09T00:37:35.682Z,0
2017-06-09T00:38:07.951Z,0
2017-06-09T00:38:40.249Z,0
2017-06-09T00:39:12.549Z,0
2017-06-09T00:39:44.837Z,0
2017-06-09T00:40:17.132Z,0
2017-06-09T00:40:49.429Z,0
2017-06-09T00:41:21.720Z,0
2017-06-09T00:41:54.035Z,0
2017-06-09T00:42:26.338Z,0
2017-06-09T00:42:58.621Z,0
2017-06-09T00:43:30.894Z,0
2017-06-09T00:44:03.202Z,0
2017-06-09T00:44:35.514Z,0
2017-06-09T00:45:07.826Z,0
2017-06-09T00:45:40.117Z,0
2017-06-09T00:46:12.412Z,0
2017-06-09T00:46:44.703Z,0
2017-06-09T00:47:17.059Z,0
2017-06-09T00:47:49.353Z,0
2017-06-09T00:48:21.652Z,0
2017-06-09T00:48:53.937Z,0
2017-06-09T00:49:26.226Z,0
2017-06-09T00:49:58.491Z,0
2017-06-09T00:50:30.790Z,0
2017-06-09T00:51:03.078Z,0
2017-06-09T00:51:35.375Z,0
2017-06-09T00:52:07.676Z,0
2017-06-09T00:52:39.976Z,0
2017-06-09T00:53:12.254Z,0
2017-06-09T00:53:44.519Z,0
2017-06-09T00:54:16.831Z,0
2017-06-09T00:54:49.145Z,0
2017-06-09T00:55:21.431Z,0
2017-06-09T00:55:53.743Z,0
2017-06-09T00:56:26.016Z,0
2017-06-09T00:56:58.301Z,0
2017-06-09T00:57:30.593Z,0
2017-06-09T00:58:02.874Z,0
2017-06-09T00:58:35.163Z,0
2017-06-09T00:59:07.484Z,0
2017-06-09T00:59:39.784Z,0
2017-06-09T01:00:12.061Z,0
2017-06-09T01:00:44.352Z,0
2017-06-09T01:01:16.626Z,0
2017-06-09T01:01:48.918Z,0
2017-06-09T01:02:21.202Z,0
2017-06-09T01:02:53.475Z,0
2017-06-09T01:03:25.777Z,0
2017-06-09T01:03:58.060Z,0
2017-06-09T01:04:30.337Z,0
2017-06-09T01:05:02.639Z,0
2017-06-09T01:05:34.922Z,0
2017-06-09T01:06:07.190Z,0
2017-06-09T01:06:39.485Z,0
2017-06-09T01:07:11.768Z,0
2017-06-09T01:07:44.062Z,0
2017-06-09T01:08:16.344Z,0
2017-06-09T01:08:48.669Z,0
2017-06-09T01:09:20.952Z,0
2017-06-09T01:09:53.230Z,0
2017-06-09T01:10:25.515Z,0
2017-06-09T01:10:57.804Z,0
2017-06-09T01:11:30.098Z,0
2017-06-09T01:12:02.391Z,0
2017-06-09T01:12:34.657Z,0
2017-06-09T01:13:06.947Z,0
2017-06-09T01:13:39.233Z,0
2017-06-09T01:14:11.514Z,0
2017-06-09T01:14:43.796Z,0
2017-06-09T01:15:16.112Z,0
2017-06-09T01:15:48.406Z,0
2017-06-09T01:16:20.678Z,0
2017-06-09T01:16:52.978Z,0
2017-06-09T01:17:25.270Z,0
2017-06-09T01:17:57.564Z,0
2017-06-09T01:18:29.838Z,0
2017-06-09T01:19:02.118Z,0
2017-06-09T01:19:34.405Z,0
2017-06-09T01:20:06.696Z,0
2017-06-09T01:20:38.988Z,0
2017-06-09T01:21:11.277Z,0
2017-06-09T01:21:43.566Z,0
2017-06-09T01:22:15.849Z,0
2017-06-09T01:22:48.140Z,0
2017-06-09T01:23:20.401Z,0
2017-06-09T01:23:52.646Z,0
2017-06-09T01:24:24.906Z,0
2017-06-09T01:24:57.677Z,0
2017-06-09T01:25:29.915Z,0
2017-06-09T01:26:02.158Z,0
2017-06-09T01:26:34.409Z,0
2017-06-09T01:27:06.669Z,0
2017-06-09T01:27:39.630Z,0
2017-06-09T01:28:11.872Z,0
2017-06-09T01:28:44.133Z,0
2017-06-09T01:29:16.389Z,0
2017-06-09T01:29:48.637Z,0
2017-06-09T01:30:20.880Z,0
2017-06-09T01:30:53.686Z,0
2017-06-09T01:31:25.947Z,0
2017-06-09T01:31:58.179Z,0
2017-06-09T01:32:30.455Z,0
2017-06-09T01:33:02.777Z,0
2017-06-09T01:33:35.063Z,0
2017-06-09T01:34:07.350Z,0
2017-06-09T01:34:39.650Z,0
2017-06-09T01:35:11.969Z,0
2017-06-09T01:35:44.273Z,0
2017-06-09T01:36:16.545Z,0
2017-06-09T01:36:48.827Z,0
2017-06-09T01:37:21.150Z,0
2017-06-09T01:37:53.448Z,0
2017-06-09T01:38:25.727Z,0
2017-06-09T01:38:58.035Z,0
2017-06-09T01:39:30.341Z,0
2017-06-09T01:40:02.643Z,0
2017-06-09T01:40:34.940Z,0
2017-06-09T01:41:07.231Z,0
2017-06-09T01:41:39.540Z,0
2017-06-09T01:42:11.818Z,0
2017-06-09T01:42:44.097Z,0
2017-06-09T01:43:16.351Z,0
2017-06-09T01:43:48.601Z,0
2017-06-09T01:44:20.882Z,0
2017-06-09T01:44:53.163Z,0
2017-06-09T01:45:25.405Z,0
2017-06-09T01:45:57.634Z,0
2017-06-09T01:46:30.589Z,0
2017-06-09T01:47:02.843Z,0
2017-06-09T01:47:35.119Z,0
2017-06-09T01:48:07.371Z,0
2017-06-09T01:48:39.635Z,0
2017-06-09T01:49:11.938Z,0
2017-06-09T01:49:44.193Z,0
2017-06-09T01:50:16.443Z,0
2017-06-09T01:50:48.716Z,0
2017-06-09T01:51:20.973Z,0
2017-06-09T01:51:53.989Z,0
2017-06-09T01:52:26.257Z,0
2017-06-09T01:52:58.534Z,0
2017-06-09T01:53:30.786Z,0
2017-06-09T01:54:03.051Z,0
2017-06-09T01:54:35.308Z,0
2017-06-09T01:55:07.548Z,0
2017-06-09T01:55:39.805Z,0
2017-06-09T01:56:12.072Z,0
2017-06-09T01:56:44.372Z,0
2017-06-09T01:57:16.647Z,0
2017-06-09T01:57:48.903Z,0
2017-06-09T01:58:21.147Z,0
2017-06-09T01:58:53.398Z,0
2017-06-09T01:59:25.651Z,0
2017-06-09T01:59:58.598Z,0
2017-06-09T02:00:30.875Z,0
2017-06-09T02:01:03.097Z,0
2017-06-09T02:01:35.336Z,0
2017-06-09T02:02:07.618Z,0
2017-06-09T02:02:39.911Z,0
2017-06-09T02:03:12.192Z,0
2017-06-09T02:03:44.468Z,0
2017-06-09T02:04:16.764Z,0
2017-06-09T02:04:49.062Z,0
2017-06-09T02:05:21.345Z,0
2017-06-09T02:05:53.627Z,0
2017-06-09T02:06:25.907Z,0
2017-06-09T02:06:58.247Z,0
2017-06-09T02:07:30.538Z,0
2017-06-09T02:08:02.827Z,0
2017-06-09T02:08:35.102Z,0
2017-06-09T02:09:07.390Z,0
2017-06-09T02:09:39.682Z,0
2017-06-09T02:10:11.979Z,0
2017-06-09T02:10:44.270Z,0
2017-06-09T02:11:16.563Z,0
2017-06-09T02:11:48.837Z,0
2017-06-09T02:12:21.123Z,0
2017-06-09T02:12:53.418Z,0
2017-06-09T02:13:25.662Z,0
2017-06-09T02:13:57.896Z,0
2017-06-09T02:14:30.150Z,0
2017-06-09T02:15:02.420Z,0
2017-06-09T02:15:35.550Z,0
2017-06-09T02:16:07.947Z,0
2017-06-09T02:16:40.223Z,0
2017-06-09T02:17:12.488Z,0
2017-06-09T02:17:44.751Z,0
2017-06-09T02:18:17.003Z,0
2017-06-09T02:18:49.271Z,0
2017-06-09T02:19:22.183Z,0
2017-06-09T02:19:54.460Z,0
2017-06-09T02:20:26.754Z,0
2017-06-09T02:20:59.046Z,0
2017-06-09T02:21:31.314Z,0
2017-06-09T02:22:03.549Z,0
2017-06-09T02:22:35.794Z,0
2017-06-09T02:23:08.052Z,0
2017-06-09T02:23:40.315Z,0
2017-06-09T02:24:12.575Z,0
2017-06-09T02:24:44.846Z,0
2017-06-09T02:25:17.098Z,0
2017-06-09T02:25:49.351Z,0
2017-06-09T02:26:21.599Z,0
2017-06-09T02:26:53.852Z,0
2017-06-09T02:27:26.109Z,0
2017-06-09T02:27:58.354Z,0
2017-06-09T02:28:30.605Z,0
2017-06-09T02:29:02.851Z,0
2017-06-09T02:29:35.128Z,0
2017-06-09T02:30:07.390Z,0
2017-06-09T02:30:39.641Z,0
2017-06-09T02:31:11.887Z,0
2017-06-09T02:31:44.659Z,0
2017-06-09T02:32:16.914Z,0
2017-06-09T02:32:49.187Z,0
2017-06-09T02:33:21.438Z,0
2017-06-09T02:33:53.694Z,0
2017-06-09T02:34:25.996Z,0
2017-06-09T02:34:58.347Z,4
2017-06-09T02:35:30.637Z,4
2017-06-09T02:36:02.895Z,4
2017-06-09T02:36:35.139Z,4
2017-06-09T02:37:07.409Z,4
2017-06-09T02:37:40.215Z,0
2017-06-09T02:38:12.459Z,0
2017-06-09T02:38:44.701Z,0
2017-06-09T02:39:16.979Z,0
2017-06-09T02:39:49.226Z,4
2017-06-09T02:40:21.479Z,4
2017-06-09T02:40:53.754Z,4
2017-06-09T02:41:26.013Z,4
2017-06-09T02:41:58.261Z,4
2017-06-09T02:42:31.190Z,0
2017-06-09T02:43:04.188Z,4
2017-06-09T02:43:36.491Z,4
2017-06-09T02:44:08.807Z,4
2017-06-09T02:44:41.078Z,8
2017-06-09T02:45:13.343Z,4
2017-06-09T02:45:46.218Z,4
2017-06-09T02:46:18.544Z,8
2017-06-09T02:46:50.796Z,8
2017-06-09T02:47:23.055Z,8
2017-06-09T02:47:55.315Z,8
2017-06-09T02:48:27.564Z,8
2017-06-09T02:48:59.834Z,8
2017-06-09T02:49:32.664Z,8
2017-06-09T02:50:04.938Z,12
2017-06-09T02:50:37.202Z,8
2017-06-09T02:51:09.466Z,12
2017-06-09T02:51:41.729Z,12
2017-06-09T02:52:14.119Z,12
2017-06-09T02:52:46.397Z,16
2017-06-09T02:53:18.686Z,16
2017-06-09T02:53:50.965Z,16
2017-06-09T02:54:23.285Z,16
2017-06-09T02:54:55.574Z,20
2017-06-09T02:55:27.893Z,16
2017-06-09T02:56:00.190Z,20
2017-06-09T02:56:32.490Z,20
2017-06-09T02:57:04.806Z,20
2017-06-09T02:57:37.105Z,24
2017-06-09T02:58:09.403Z,28
2017-06-09T02:58:41.694Z,28
2017-06-09T02:59:14.004Z,28
2017-06-09T02:59:46.285Z,28
2017-06-09T03:00:18.568Z,32
2017-06-09T03:00:50.860Z,32
2017-06-09T03:01:23.134Z,32
2017-06-09T03:01:55.413Z,32
2017-06-09T03:02:27.700Z,36
2017-06-09T03:03:00.000Z,36
2017-06-09T03:03:32.282Z,36
2017-06-09T03:04:05.116Z,40
2017-06-09T03:04:37.370Z,40
2017-06-09T03:05:09.620Z,40
2017-06-09T03:05:41.871Z,44
2017-06-09T03:06:14.146Z,44
2017-06-09T03:06:46.403Z,44
2017-06-09T03:07:19.735Z,44
2017-06-09T03:07:52.009Z,48
2017-06-09T03:08:25.118Z,52
2017-06-09T03:08:57.361Z,52
2017-06-09T03:09:29.621Z,52
2017-06-09T03:10:01.852Z,52
2017-06-09T03:10:34.115Z,56
2017-06-09T03:11:06.371Z,60
2017-06-09T03:11:38.661Z,60
2017-06-09T03:12:10.975Z,60
2017-06-09T03:12:43.214Z,64
2017-06-09T03:13:15.459Z,64
2017-06-09T03:13:47.761Z,68
2017-06-09T03:14:20.018Z,68
2017-06-09T03:14:52.293Z,72
2017-06-09T03:15:24.567Z,72
2017-06-09T03:15:56.821Z,76
2017-06-09T03:16:30.063Z,80
2017-06-09T03:17:03.179Z,80
2017-06-09T03:17:35.430Z,84
2017-06-09T03:18:07.741Z,88
2017-06-09T03:18:40.019Z,88
2017-06-09T03:19:13.205Z,92
2017-06-09T03:19:45.557Z,92
2017-06-09T03:20:18.670Z,96
2017-06-09T03:20:50.917Z,100
2017-06-09T03:21:23.200Z,100
2017-06-09T03:21:56.208Z,104
2017-06-09T03:22:28.522Z,104
2017-06-09T03:23:00.806Z,108
2017-06-09T03:23:33.095Z,112
2017-06-09T03:24:05.363Z,116
2017-06-09T03:24:37.654Z,120
2017-06-09T03:25:09.948Z,120
2017-06-09T03:25:42.254Z,128
2017-06-09T03:26:14.577Z,132
2017-06-09T03:26:46.878Z,136
2017-06-09T03:27:19.158Z,136
2017-06-09T03:27:51.458Z,140
2017-06-09T03:28:23.762Z,144
2017-06-09T03:28:56.058Z,148
2017-06-09T03:29:28.358Z,156
2017-06-09T03:30:00.649Z,160
2017-06-09T03:30:32.927Z,164
2017-06-09T03:31:05.243Z,164
2017-06-09T03:31:37.538Z,172
2017-06-09T03:32:09.815Z,172
2017-06-09T03:32:42.126Z,180
2017-06-09T03:33:14.374Z,180
2017-06-09T03:33:46.640Z,188
2017-06-09T03:34:18.895Z,192
2017-06-09T03:34:51.182Z,196
2017-06-09T03:35:23.446Z,200
2017-06-09T03:35:55.702Z,204
2017-06-09T03:36:27.949Z,212
2017-06-09T03:37:00.222Z,212
2017-06-09T03:37:32.494Z,220
2017-06-09T03:38:04.736Z,220
2017-06-09T03:38:37.007Z,228
2017-06-09T03:39:10.227Z,232
2017-06-09T03:39:42.518Z,236
2017-06-09T03:40:14.771Z,240
2017-06-09T03:40:47.022Z,244
2017-06-09T03:41:19.272Z,248
2017-06-09T03:41:51.531Z,252
2017-06-09T03:42:23.807Z,252
2017-06-09T03:42:56.077Z,256
2017-06-09T03:43:28.380Z,260
2017-06-09T03:44:00.667Z,264
2017-06-09T03:44:32.988Z,268
2017-06-09T03:45:05.275Z,272
2017-06-09T03:45:37.551Z,272
2017-06-09T03:46:09.838Z,280
2017-06-09T03:46:42.130Z,284
2017-06-09T03:47:14.423Z,284
2017-06-09T03:47:46.708Z,292
2017-06-09T03:48:19.013Z,296
2017-06-09T03:48:51.321Z,304
2017-06-09T03:49:23.619Z,308
2017-06-09T03:49:55.914Z,312
2017-06-09T03:50:28.209Z,320
2017-06-09T03:51:00.484Z,328
2017-06-09T03:51:32.779Z,328
2017-06-09T03:52:05.085Z,336
2017-06-09T03:52:37.357Z,344
2017-06-09T03:53:09.616Z,348
2017-06-09T03:53:41.880Z,352
2017-06-09T03:54:14.128Z,360
2017-06-09T03:54:46.364Z,364
2017-06-09T03:55:18.621Z,372
2017-06-09T03:55:50.954Z,372
2017-06-09T03:56:23.235Z,380
2017-06-09T03:56:55.484Z,380
2017-06-09T03:57:27.747Z,384
2017-06-09T03:58:00.018Z,388
2017-06-09T03:58:32.274Z,388
2017-06-09T03:59:04.509Z,388
2017-06-09T03:59:38.210Z,388
2017-06-09T04:00:10.479Z,388
2017-06-09T04:00:42.729Z,388
2017-06-09T04:01:14.989Z,388
2017-06-09T04:01:47.342Z,388
2017-06-09T04:02:19.593Z,388
2017-06-09T04:02:51.844Z,384
2017-06-09T04:03:24.123Z,384
2017-06-09T04:03:56.394Z,388
2017-06-09T04:04:28.640Z,388
2017-06-09T04:05:00.888Z,392
2017-06-09T04:05:33.769Z,392
2017-06-09T04:06:06.040Z,396
2017-06-09T04:06:38.322Z,396
2017-06-09T04:07:11.143Z,404
2017-06-09T04:07:43.454Z,408
2017-06-09T04:08:15.724Z,412
2017-06-09T04:08:47.971Z,420
2017-06-09T04:09:20.226Z,428
2017-06-09T04:09:52.537Z,436
2017-06-09T04:10:24.811Z,440
2017-06-09T04:10:57.088Z,448
2017-06-09T04:11:29.343Z,456
2017-06-09T04:12:01.616Z,460
2017-06-09T04:12:33.858Z,464
2017-06-09T04:13:06.162Z,472
2017-06-09T04:13:38.408Z,476
2017-06-09T04:14:10.721Z,480
2017-06-09T04:14:42.981Z,484
2017-06-09T04:15:15.249Z,492
2017-06-09T04:15:47.497Z,500
2017-06-09T04:16:19.753Z,504
2017-06-09T04:16:52.010Z,512
2017-06-09T04:17:24.263Z,520
2017-06-09T04:17:56.573Z,528
2017-06-09T04:18:28.815Z,536
2017-06-09T04:19:01.069Z,544
2017-06-09T04:19:33.375Z,548
2017-06-09T04:20:07.242Z,552
2017-06-09T04:20:39.560Z,560
2017-06-09T04:21:12.735Z,568
2017-06-09T04:21:45.012Z,576
2017-06-09T04:22:17.257Z,584
2017-06-09T04:22:50.097Z,596
2017-06-09T04:23:22.341Z,608
2017-06-09T04:23:55.106Z,620
2017-06-09T04:24:27.354Z,632
2017-06-09T04:25:00.270Z,644
2017-06-09T04:25:32.511Z,656
2017-06-09T04:26:04.829Z,672
2017-06-09T04:26:37.740Z,684
2017-06-09T04:27:10.014Z,696
2017-06-09T04:27:42.269Z,708
2017-06-09T04:28:14.526Z,720
2017-06-09T04:28:46.815Z,728
2017-06-09T04:29:19.077Z,744
2017-06-09T04:29:52.237Z,752
2017-06-09T04:30:24.496Z,768
2017-06-09T04:30:56.736Z,780
2017-06-09T04:31:29.190Z,796
2017-06-09T04:32:01.455Z,812
2017-06-09T04:32:35.215Z,832
2017-06-09T04:33:07.505Z,856
2017-06-09T04:33:39.756Z,884
2017-06-09T04:34:12.086Z,920
2017-06-09T04:34:44.359Z,976
2017-06-09T04:35:16.619Z,1096
2017-06-09T04:35:48.862Z,1208
2017-06-09T04:36:21.130Z,1280
2017-06-09T04:36:53.391Z,1284
2017-06-09T04:37:26.275Z,1236
2017-06-09T04:37:58.582Z,1276
2017-06-09T04:38:31.598Z,1316
2017-06-09T04:39:03.925Z,1376
2017-06-09T04:39:37.091Z,1492
2017-06-09T04:40:09.761Z,1568
2017-06-09T04:40:42.019Z,1620
2017-06-09T04:41:14.279Z,1720
2017-06-09T04:41:46.556Z,1896
2017-06-09T04:42:18.817Z,1976
2017-06-09T04:42:51.133Z,1988
2017-06-09T04:43:23.380Z,1996
2017-06-09T04:43:55.633Z,2024
2017-06-09T04:44:27.886Z,2028
2017-06-09T04:45:00.659Z,1992
2017-06-09T04:45:32.940Z,1912
2017-06-09T04:46:05.225Z,1752
2017-06-09T04:46:37.481Z,1684
2017-06-09T04:47:09.736Z,1628
2017-06-09T04:47:42.670Z,1644
2017-06-09T04:48:14.968Z,1700
2017-06-09T04:48:47.270Z,1868
2017-06-09T04:49:19.511Z,2084
2017-06-09T04:49:51.765Z,2224
2017-06-09T04:50:24.670Z,2272
2017-06-09T04:50:56.943Z,2288
2017-06-09T04:51:29.189Z,2280
2017-06-09T04:52:01.446Z,2244
2017-06-09T04:52:33.802Z,2252
2017-06-09T04:53:06.062Z,2272
2017-06-09T04:53:38.311Z,2304
2017-06-09T04:54:10.614Z,2372
2017-06-09T04:54:43.658Z,2316
2017-06-09T04:55:15.891Z,2164
2017-06-09T04:55:48.135Z,1796
2017-06-09T04:56:20.439Z,1756
2017-06-09T04:56:52.687Z,1664
2017-06-09T04:57:25.595Z,1672
2017-06-09T04:57:57.852Z,1768
2017-06-09T04:58:30.090Z,1968
2017-06-09T04:59:03.225Z,2148
2017-06-09T04:59:35.608Z,2184
2017-06-09T05:00:07.879Z,2300
2017-06-09T05:00:40.131Z,2460
2017-06-09T05:01:12.396Z,2480
2017-06-09T05:01:45.192Z,2488
2017-06-09T05:02:17.488Z,2496
2017-06-09T05:02:49.756Z,2520
2017-06-09T05:03:22.040Z,2304
2017-06-09T05:03:54.334Z,1952
2017-06-09T05:04:26.615Z,1828
2017-06-09T05:04:58.905Z,1824
2017-06-09T05:05:31.168Z,1988
2017-06-09T05:06:03.466Z,2152
2017-06-09T05:06:35.783Z,2332
2017-06-09T05:07:08.088Z,2436
2017-06-09T05:07:40.386Z,2520
2017-06-09T05:08:12.703Z,2644
2017-06-09T05:08:44.974Z,2768
2017-06-09T05:09:17.294Z,2944
2017-06-09T05:09:49.602Z,3020
2017-06-09T05:10:21.900Z,3152
2017-06-09T05:10:54.200Z,3252
2017-06-09T05:11:26.494Z,3276
2017-06-09T05:11:58.779Z,3352
2017-06-09T05:12:31.067Z,3340
2017-06-09T05:13:03.385Z,3308
2017-06-09T05:13:35.640Z,3436
2017-06-09T05:14:07.913Z,3404
2017-06-09T05:14:40.205Z,3416
2017-06-09T05:15:12.482Z,3512
2017-06-09T05:15:44.767Z,3552
2017-06-09T05:16:17.063Z,3596
2017-06-09T05:16:49.356Z,3592
2017-06-09T05:17:21.676Z,3516
2017-06-09T05:17:53.962Z,3068
2017-06-09T05:18:26.255Z,3504
2017-06-09T05:18:58.539Z,3488
2017-06-09T05:19:30.850Z,3652
2017-06-09T05:20:03.136Z,3624
2017-06-09T05:20:35.413Z,3576
2017-06-09T05:21:07.714Z,3468
2017-06-09T05:21:40.008Z,3604
2017-06-09T05:22:12.298Z,3708
2017-06-09T05:22:44.588Z,3752
2017-06-09T05:23:16.883Z,3812
2017-06-09T05:23:49.175Z,3748
2017-06-09T05:24:21.497Z,3756
2017-06-09T05:24:53.777Z,3780
2017-06-09T05:25:26.063Z,3676
2017-06-09T05:25:58.350Z,3584
2017-06-09T05:26:30.623Z,3376
2017-06-09T05:27:02.913Z,2940
2017-06-09T05:27:35.198Z,2852
2017-06-09T05:28:07.509Z,2696
2017-06-09T05:28:39.792Z,2964
2017-06-09T05:29:12.078Z,2628
2017-06-09T05:29:44.404Z,2640
2017-06-09T05:30:16.709Z,2476
2017-06-09T05:30:49.006Z,2136
2017-06-09T05:31:21.271Z,2084
2017-06-09T05:31:53.561Z,1940
2017-06-09T05:32:25.856Z,1892
2017-06-09T05:32:58.150Z,1780
2017-06-09T05:33:30.429Z,1768
2017-06-09T05:34:02.693Z,2008
2017-06-09T05:34:34.981Z,1916
2017-06-09T05:35:07.285Z,2516
2017-06-09T05:35:39.559Z,3140
2017-06-09T05:36:11.862Z,3484
2017-06-09T05:36:44.151Z,3552
2017-06-09T05:37:16.443Z,3652
2017-06-09T05:37:48.734Z,3452
2017-06-09T05:38:21.049Z,3468
2017-06-09T05:38:53.341Z,3360
2017-06-09T05:39:25.631Z,3324
2017-06-09T05:39:57.911Z,2944
2017-06-09T05:40:30.202Z,2636
2017-06-09T05:41:02.493Z,2436
2017-06-09T05:41:34.791Z,2608
2017-06-09T05:42:07.088Z,3560
2017-06-09T05:42:39.360Z,3436
2017-06-09T05:43:11.628Z,3636
2017-06-09T05:43:43.919Z,3612
2017-06-09T05:44:16.206Z,3292
2017-06-09T05:44:48.500Z,2844
2017-06-09T05:45:20.779Z,3676
2017-06-09T05:45:53.062Z,2932
2017-06-09T05:46:25.352Z,3232
2017-06-09T05:46:57.638Z,2744
2017-06-09T05:47:29.931Z,2228
2017-06-09T05:48:02.208Z,2300
2017-06-09T05:48:34.497Z,2448
2017-06-09T05:49:06.784Z,2480
2017-06-09T05:49:39.064Z,2352
2017-06-09T05:50:12.281Z,2460
2017-06-09T05:50:44.570Z,2252
2017-06-09T05:51:16.857Z,2284
2017-06-09T05:51:49.141Z,2328
2017-06-09T05:52:21.459Z,2364
2017-06-09T05:52:53.771Z,2340
2017-06-09T05:53:26.053Z,2428
2017-06-09T05:53:58.329Z,2692
2017-06-09T05:54:30.609Z,2724
2017-06-09T05:56:22.820Z,2596
2017-06-09T05:56:55.128Z,2600
2017-06-09T05:57:27.398Z,2564
2017-06-09T05:57:59.677Z,2692
2017-06-09T05:58:31.974Z,2760
2017-06-09T05:59:04.269Z,2812
2017-06-09T05:59:36.556Z,3460
2017-06-09T06:00:08.878Z,3512
2017-06-09T06:00:41.157Z,3492
2017-06-09T06:01:13.418Z,3804
2017-06-09T06:01:45.689Z,3948
2017-06-09T06:02:17.951Z,4100
2017-06-09T06:02:50.252Z,4156
2017-06-09T06:03:22.652Z,4192
2017-06-09T06:03:55.012Z,3840
2017-06-09T06:04:27.310Z,3928
2017-06-09T06:04:59.599Z,3540
2017-06-09T06:05:31.906Z,3620
2017-06-09T06:06:04.190Z,3880
2017-06-09T06:06:36.480Z,3404
2017-06-09T06:07:08.814Z,3712
2017-06-09T06:07:41.095Z,3672
2017-06-09T06:08:13.423Z,3332
2017-06-09T06:08:45.738Z,3248
2017-06-09T06:09:18.025Z,2956
2017-06-09T06:09:50.374Z,2944
2017-06-09T06:10:22.658Z,2728
2017-06-09T06:10:54.952Z,2696
2017-06-09T06:11:27.256Z,2532
2017-06-09T06:11:59.556Z,2416
2017-06-09T06:12:31.835Z,2248
2017-06-09T06:13:04.094Z,2180
2017-06-09T06:13:36.335Z,2120
2017-06-09T06:14:08.578Z,2064
2017-06-09T06:14:40.871Z,2016
2017-06-09T06:15:13.135Z,1972
2017-06-09T06:15:46.776Z,1892
2017-06-09T06:16:20.150Z,1836
2017-06-09T06:16:52.416Z,1796
2017-06-09T06:17:25.641Z,1776
2017-06-09T06:17:57.976Z,1768
2017-06-09T06:18:31.204Z,1768
2017-06-09T06:19:03.481Z,1784
2017-06-09T06:19:36.362Z,1800
2017-06-09T06:20:10.300Z,1804
2017-06-09T06:20:42.571Z,1812
2017-06-09T06:21:14.824Z,1828
2017-06-09T06:21:47.081Z,1860
2017-06-09T06:22:19.443Z,1884
2017-06-09T06:22:51.753Z,1892
2017-06-09T06:23:24.032Z,1888
2017-06-09T06:23:56.332Z,1896
2017-06-09T06:24:28.668Z,1896
2017-06-09T06:25:00.961Z,1892
2017-06-09T06:25:33.265Z,1888
2017-06-09T06:26:05.566Z,1892
2017-06-09T06:26:37.846Z,1896
2017-06-09T06:27:10.115Z,1916
2017-06-09T06:27:42.411Z,1944
2017-06-09T06:28:14.698Z,1972
2017-06-09T06:28:46.993Z,1996
2017-06-09T06:29:19.280Z,2028
2017-06-09T06:29:51.581Z,2080
2017-06-09T06:30:23.892Z,2104
2017-06-09T06:30:56.195Z,2060
2017-06-09T06:31:28.465Z,2044
2017-06-09T06:32:01.646Z,2040
2017-06-09T06:32:33.928Z,2036
2017-06-09T06:33:06.204Z,2036
2017-06-09T06:33:38.486Z,2036
2017-06-09T06:34:10.778Z,2044
2017-06-09T06:34:43.075Z,2048
2017-06-09T06:35:15.367Z,2064
2017-06-09T06:35:47.653Z,2052
2017-06-09T06:36:19.934Z,2064
2017-06-09T06:36:52.222Z,2104
2017-06-09T06:37:24.531Z,2440
2017-06-09T06:37:56.814Z,2284
2017-06-09T06:38:29.315Z,2180
2017-06-09T06:39:01.659Z,2072
2017-06-09T06:39:33.956Z,2048
2017-06-09T06:40:06.475Z,2180
2017-06-09T06:42:04.390Z,2012
2017-06-09T06:42:38.185Z,2036
2017-06-09T06:43:10.445Z,2064
2017-06-09T06:43:42.717Z,2096
2017-06-09T06:44:15.819Z,2128
2017-06-09T06:44:48.090Z,2172
2017-06-09T06:45:21.196Z,2216
2017-06-09T06:45:54.341Z,2264
2017-06-09T06:46:26.616Z,2304
2017-06-09T06:46:58.895Z,2348
2017-06-09T06:47:31.139Z,2392
2017-06-09T06:48:03.391Z,2440
2017-06-09T06:48:35.642Z,2492
2017-06-09T06:49:07.905Z,2596
2017-06-09T06:49:40.163Z,2568
2017-06-09T06:50:12.443Z,2588
2017-06-09T06:50:44.711Z,2620
2017-06-09T06:51:16.964Z,2656
2017-06-09T06:51:49.227Z,2700
2017-06-09T06:52:21.461Z,2736
2017-06-09T06:52:53.724Z,2816
2017-06-09T06:53:26.024Z,3136
2017-06-09T06:53:58.321Z,4196
2017-06-09T06:54:30.608Z,3936
2017-06-09T06:55:02.895Z,4152
2017-06-09T06:55:35.221Z,4340
2017-06-09T06:56:07.536Z,4324
2017-06-09T06:56:39.834Z,3900
2017-06-09T06:57:12.129Z,4012
2017-06-09T06:57:44.427Z,4616
2017-06-09T06:58:16.709Z,4640
2017-06-09T06:58:48.992Z,4664
2017-06-09T06:59:21.282Z,4576
2017-06-09T06:59:53.691Z,4476
2017-06-09T07:00:25.996Z,4152
2017-06-09T07:00:58.297Z,3396
2017-06-09T07:01:30.590Z,3360
2017-06-09T07:02:02.890Z,3104
2017-06-09T07:02:34.911Z,2952
2017-06-09T07:03:07.388Z,3088
2017-06-09T07:03:39.703Z,2876
2017-06-09T07:04:11.727Z,2824
2017-06-09T07:04:44.264Z,2648
2017-06-09T07:06:36.102Z,2080
2017-06-09T07:07:08.534Z,1992
2017-06-09T07:09:00.347Z,1892
2017-06-09T07:09:32.646Z,1872
2017-06-09T07:10:04.933Z,1860
2017-06-09T07:10:37.557Z,1848
2017-06-09T07:11:10.776Z,1844
2017-06-09T07:11:43.082Z,1848
2017-06-09T07:12:15.353Z,1860
2017-06-09T07:12:47.636Z,1888
2017-06-09T07:13:19.978Z,1908
2017-06-09T07:13:52.258Z,1956
2017-06-09T07:14:24.551Z,2020
2017-06-09T07:14:56.823Z,2144
2017-06-09T07:16:48.396Z,2952
2017-06-09T07:17:20.687Z,3480
2017-06-09T07:17:52.986Z,3856
2017-06-09T07:18:25.297Z,3796
2017-06-09T07:18:57.616Z,4204
2017-06-09T07:20:49.323Z,4712
2017-06-09T07:21:22.046Z,4976
2017-06-09T07:21:54.476Z,5092
2017-06-09T07:22:26.781Z,5260
2017-06-09T07:22:59.866Z,5744
2017-06-09T07:23:32.131Z,6152
2017-06-09T07:24:04.465Z,6348
2017-06-09T07:24:36.753Z,6456
2017-06-09T07:25:09.129Z,6648
2017-06-09T07:25:41.456Z,6644
2017-06-09T07:26:14.380Z,6552
2017-06-09T07:26:46.669Z,6560
2017-06-09T07:27:19.005Z,6608
2017-06-09T07:27:51.309Z,6600
2017-06-09T07:28:23.699Z,6572
2017-06-09T07:28:56.028Z,6296
2017-06-09T07:29:28.416Z,6276
2017-06-09T07:30:00.694Z,6092
2017-06-09T07:30:32.952Z,6060
2017-06-09T07:31:05.236Z,5676
2017-06-09T07:31:37.602Z,5480
2017-06-09T07:32:09.843Z,5388
2017-06-09T07:32:42.109Z,5496
2017-06-09T07:33:14.368Z,5396
2017-06-09T07:33:47.268Z,5264
2017-06-09T07:34:20.176Z,5140
2017-06-09T07:34:53.210Z,5048
2017-06-09T07:35:25.544Z,4644
2017-06-09T07:35:57.802Z,4124
2017-06-09T07:36:30.085Z,3628
2017-06-09T07:37:02.356Z,3520
2017-06-09T07:37:34.607Z,3504
2017-06-09T07:38:06.863Z,3500
2017-06-09T07:38:39.135Z,3552
2017-06-09T07:39:11.400Z,3324
2017-06-09T07:39:44.370Z,3128
2017-06-09T07:40:16.639Z,3000